sensor_id;sensor_type;location;lat;lon;timestamp;P1;durP1;ratioP1;P2;durP2;ratioP2
51664;SDS011;37751;52.408;12.536;2024-02-15T00:01:33;10.77;;;7.95;;
51664;SDS011;37751;52.408;12.536;2024-02-15T00:04:04;11.60;;;7.32;;
51664;SDS011;37751;52.408;12.536;2024-02-15T00:06:36;11.38;;;7.75;;
51664;SDS011;37751;52.408;12.536;2024-02-15T00:09:07;11.77;;;9.23;;
51664;SDS011;37751;52.408;12.536;2024-02-15T00:11:38;12.32;;;8.70;;
51664;SDS011;37751;52.408;12.536;2024-02-15T00:14:10;11.93;;;8.75;;
51664;SDS011;37751;52.408;12.536;2024-02-15T00:16:43;13.50;;;9.45;;
51664;SDS011;37751;52.408;12.536;2024-02-15T00:19:15;13.25;;;9.30;;
51664;SDS011;37751;52.408;12.536;2024-02-15T00:21:47;11.70;;;8.00;;
51664;SDS011;37751;52.408;12.536;2024-02-15T00:24:19;11.60;;;8.32;;
51664;SDS011;37751;52.408;12.536;2024-02-15T00:26:51;12.68;;;8.77;;
51664;SDS011;37751;52.408;12.536;2024-02-15T00:29:22;16.27;;;8.82;;
51664;SDS011;37751;52.408;12.536;2024-02-15T00:31:58;13.57;;;9.35;;
51664;SDS011;37751;52.408;12.536;2024-02-15T00:34:31;13.75;;;9.55;;
51664;SDS011;37751;52.408;12.536;2024-02-15T00:37:03;14.77;;;8.65;;
51664;SDS011;37751;52.408;12.536;2024-02-15T00:39:34;11.13;;;8.95;;
51664;SDS011;37751;52.408;12.536;2024-02-15T00:42:05;10.27;;;8.13;;
51664;SDS011;37751;52.408;12.536;2024-02-15T00:44:37;14.80;;;8.85;;
51664;SDS011;37751;52.408;12.536;2024-02-15T00:47:12;10.50;;;8.10;;
51664;SDS011;37751;52.408;12.536;2024-02-15T00:49:45;9.15;;;8.20;;
51664;SDS011;37751;52.408;12.536;2024-02-15T00:52:17;16.20;;;8.75;;
51664;SDS011;37751;52.408;12.536;2024-02-15T00:54:48;10.38;;;7.95;;
51664;SDS011;37751;52.408;12.536;2024-02-15T00:57:19;10.32;;;7.85;;
51664;SDS011;37751;52.408;12.536;2024-02-15T00:59:51;10.32;;;7.75;;
51664;SDS011;37751;52.408;12.536;2024-02-15T01:02:24;9.23;;;7.53;;
51664;SDS011;37751;52.408;12.536;2024-02-15T01:04:56;10.82;;;7.22;;
51664;SDS011;37751;52.408;12.536;2024-02-15T01:07:28;10.18;;;7.93;;
51664;SDS011;37751;52.408;12.536;2024-02-15T01:10:00;10.10;;;8.10;;
51664;SDS011;37751;52.408;12.536;2024-02-15T01:12:33;8.77;;;7.40;;
51664;SDS011;37751;52.408;12.536;2024-02-15T01:15:04;12.07;;;8.75;;
51664;SDS011;37751;52.408;12.536;2024-02-15T01:17:39;13.35;;;8.13;;
51664;SDS011;37751;52.408;12.536;2024-02-15T01:20:10;9.07;;;8.15;;
51664;SDS011;37751;52.408;12.536;2024-02-15T01:22:42;12.98;;;8.48;;
51664;SDS011;37751;52.408;12.536;2024-02-15T01:25:13;10.70;;;8.38;;
51664;SDS011;37751;52.408;12.536;2024-02-15T01:27:45;9.18;;;7.80;;
51664;SDS011;37751;52.408;12.536;2024-02-15T01:30:16;12.68;;;8.48;;
51664;SDS011;37751;52.408;12.536;2024-02-15T01:32:50;12.80;;;8.98;;
51664;SDS011;37751;52.408;12.536;2024-02-15T01:35:22;10.10;;;8.45;;
51664;SDS011;37751;52.408;12.536;2024-02-15T01:37:53;12.75;;;8.38;;
51664;SDS011;37751;52.408;12.536;2024-02-15T01:40:24;12.50;;;9.15;;
51664;SDS011;37751;52.408;12.536;2024-02-15T01:42:55;14.70;;;8.25;;
51664;SDS011;37751;52.408;12.536;2024-02-15T01:45:28;11.50;;;8.73;;
51664;SDS011;37751;52.408;12.536;2024-02-15T01:48:02;11.50;;;8.77;;
51664;SDS011;37751;52.408;12.536;2024-02-15T01:50:35;12.50;;;8.73;;
51664;SDS011;37751;52.408;12.536;2024-02-15T01:53:07;12.73;;;8.73;;
51664;SDS011;37751;52.408;12.536;2024-02-15T01:55:39;11.88;;;9.07;;
51664;SDS011;37751;52.408;12.536;2024-02-15T01:58:10;11.70;;;8.95;;
51664;SDS011;37751;52.408;12.536;2024-02-15T02:00:45;9.63;;;8.63;;
51664;SDS011;37751;52.408;12.536;2024-02-15T02:03:20;11.68;;;8.18;;
51664;SDS011;37751;52.408;12.536;2024-02-15T02:05:51;13.00;;;8.90;;
51664;SDS011;37751;52.408;12.536;2024-02-15T02:08:23;13.00;;;9.73;;
51664;SDS011;37751;52.408;12.536;2024-02-15T02:10:54;10.77;;;8.35;;
51664;SDS011;37751;52.408;12.536;2024-02-15T02:13:25;11.63;;;8.63;;
51664;SDS011;37751;52.408;12.536;2024-02-15T02:15:57;11.30;;;9.25;;
51664;SDS011;37751;52.408;12.536;2024-02-15T02:18:31;9.63;;;8.30;;
51664;SDS011;37751;52.408;12.536;2024-02-15T02:21:03;11.55;;;8.80;;
51664;SDS011;37751;52.408;12.536;2024-02-15T02:23:34;11.68;;;8.90;;
51664;SDS011;37751;52.408;12.536;2024-02-15T02:26:08;9.80;;;8.13;;
51664;SDS011;37751;52.408;12.536;2024-02-15T02:28:39;11.15;;;8.70;;
51664;SDS011;37751;52.408;12.536;2024-02-15T02:31:10;11.48;;;9.27;;
51664;SDS011;37751;52.408;12.536;2024-02-15T02:33:42;10.68;;;9.15;;
51664;SDS011;37751;52.408;12.536;2024-02-15T02:36:19;11.75;;;9.05;;
51664;SDS011;37751;52.408;12.536;2024-02-15T02:38:53;12.35;;;9.00;;
51664;SDS011;37751;52.408;12.536;2024-02-15T02:41:31;12.38;;;8.90;;
51664;SDS011;37751;52.408;12.536;2024-02-15T02:44:02;11.65;;;8.48;;
51664;SDS011;37751;52.408;12.536;2024-02-15T02:46:33;11.95;;;9.00;;
51664;SDS011;37751;52.408;12.536;2024-02-15T02:49:04;13.18;;;9.07;;
51664;SDS011;37751;52.408;12.536;2024-02-15T02:51:36;11.88;;;9.15;;
51664;SDS011;37751;52.408;12.536;2024-02-15T02:54:07;12.82;;;8.60;;
51664;SDS011;37751;52.408;12.536;2024-02-15T02:56:41;11.05;;;9.00;;
51664;SDS011;37751;52.408;12.536;2024-02-15T02:59:13;10.57;;;8.48;;
51664;SDS011;37751;52.408;12.536;2024-02-15T03:01:44;14.02;;;9.23;;
51664;SDS011;37751;52.408;12.536;2024-02-15T03:04:15;12.55;;;8.63;;
51664;SDS011;37751;52.408;12.536;2024-02-15T03:06:47;10.43;;;8.45;;
51664;SDS011;37751;52.408;12.536;2024-02-15T03:09:18;11.13;;;8.73;;
51664;SDS011;37751;52.408;12.536;2024-02-15T03:11:52;12.70;;;9.68;;
51664;SDS011;37751;52.408;12.536;2024-02-15T03:14:24;9.98;;;8.40;;
51664;SDS011;37751;52.408;12.536;2024-02-15T03:16:57;11.30;;;9.32;;
51664;SDS011;37751;52.408;12.536;2024-02-15T03:19:30;10.98;;;8.93;;
51664;SDS011;37751;52.408;12.536;2024-02-15T03:22:01;10.20;;;7.82;;
51664;SDS011;37751;52.408;12.536;2024-02-15T03:24:32;10.73;;;8.75;;
51664;SDS011;37751;52.408;12.536;2024-02-15T03:27:07;16.20;;;9.90;;
51664;SDS011;37751;52.408;12.536;2024-02-15T03:29:39;15.35;;;10.45;;
51664;SDS011;37751;52.408;12.536;2024-02-15T03:32:10;12.40;;;9.45;;
51664;SDS011;37751;52.408;12.536;2024-02-15T03:34:41;12.32;;;9.48;;
51664;SDS011;37751;52.408;12.536;2024-02-15T03:37:12;14.68;;;9.70;;
51664;SDS011;37751;52.408;12.536;2024-02-15T03:39:45;13.65;;;9.18;;
51664;SDS011;37751;52.408;12.536;2024-02-15T03:42:19;12.50;;;9.07;;
51664;SDS011;37751;52.408;12.536;2024-02-15T03:44:50;12.98;;;9.95;;
51664;SDS011;37751;52.408;12.536;2024-02-15T03:47:21;12.15;;;9.73;;
51664;SDS011;37751;52.408;12.536;2024-02-15T03:49:52;11.30;;;9.07;;
51664;SDS011;37751;52.408;12.536;2024-02-15T03:52:24;10.25;;;9.10;;
51664;SDS011;37751;52.408;12.536;2024-02-15T03:54:57;13.86;;;9.26;;
51664;SDS011;37751;52.408;12.536;2024-02-15T03:57:32;12.23;;;9.27;;
51664;SDS011;37751;52.408;12.536;2024-02-15T04:00:06;12.90;;;8.80;;
51664;SDS011;37751;52.408;12.536;2024-02-15T04:02:39;16.52;;;9.93;;
51664;SDS011;37751;52.408;12.536;2024-02-15T04:05:11;12.60;;;10.18;;
51664;SDS011;37751;52.408;12.536;2024-02-15T04:07:42;11.52;;;9.23;;
51664;SDS011;37751;52.408;12.536;2024-02-15T04:10:13;14.73;;;9.68;;
51664;SDS011;37751;52.408;12.536;2024-02-15T04:12:56;11.70;;;9.55;;
51664;SDS011;37751;52.408;12.536;2024-02-15T04:15:28;13.23;;;9.48;;
51664;SDS011;37751;52.408;12.536;2024-02-15T04:18:00;13.93;;;9.68;;
51664;SDS011;37751;52.408;12.536;2024-02-15T04:20:33;11.00;;;8.98;;
51664;SDS011;37751;52.408;12.536;2024-02-15T04:23:04;11.63;;;9.30;;
51664;SDS011;37751;52.408;12.536;2024-02-15T04:25:40;11.50;;;8.77;;
51664;SDS011;37751;52.408;12.536;2024-02-15T04:28:14;12.60;;;8.60;;
51664;SDS011;37751;52.408;12.536;2024-02-15T04:30:46;10.18;;;9.07;;
51664;SDS011;37751;52.408;12.536;2024-02-15T04:33:17;10.55;;;9.30;;
51664;SDS011;37751;52.408;12.536;2024-02-15T04:35:49;11.82;;;8.90;;
51664;SDS011;37751;52.408;12.536;2024-02-15T04:38:20;10.18;;;8.98;;
51664;SDS011;37751;52.408;12.536;2024-02-15T04:40:52;11.82;;;9.27;;
51664;SDS011;37751;52.408;12.536;2024-02-15T04:43:27;12.85;;;9.07;;
51664;SDS011;37751;52.408;12.536;2024-02-15T04:45:59;13.48;;;9.23;;
51664;SDS011;37751;52.408;12.536;2024-02-15T04:48:34;14.48;;;9.25;;
51664;SDS011;37751;52.408;12.536;2024-02-15T04:51:05;11.48;;;9.00;;
51664;SDS011;37751;52.408;12.536;2024-02-15T04:53:37;11.93;;;9.07;;
51664;SDS011;37751;52.408;12.536;2024-02-15T04:56:08;11.15;;;8.85;;
51664;SDS011;37751;52.408;12.536;2024-02-15T04:58:44;12.07;;;9.43;;
51664;SDS011;37751;52.408;12.536;2024-02-15T05:01:15;13.32;;;9.73;;
51664;SDS011;37751;52.408;12.536;2024-02-15T05:03:47;16.25;;;9.25;;
51664;SDS011;37751;52.408;12.536;2024-02-15T05:06:18;14.23;;;9.20;;
51664;SDS011;37751;52.408;12.536;2024-02-15T05:08:49;15.43;;;10.18;;
51664;SDS011;37751;52.408;12.536;2024-02-15T05:11:22;13.35;;;10.20;;
51664;SDS011;37751;52.408;12.536;2024-02-15T05:13:59;16.35;;;10.23;;
51664;SDS011;37751;52.408;12.536;2024-02-15T05:16:32;12.80;;;9.55;;
51664;SDS011;37751;52.408;12.536;2024-02-15T05:19:09;16.00;;;9.90;;
51664;SDS011;37751;52.408;12.536;2024-02-15T05:21:44;12.40;;;10.23;;
51664;SDS011;37751;52.408;12.536;2024-02-15T05:24:16;14.43;;;9.77;;
51664;SDS011;37751;52.408;12.536;2024-02-15T05:26:50;15.18;;;9.80;;
51664;SDS011;37751;52.408;12.536;2024-02-15T05:29:24;12.27;;;9.73;;
51664;SDS011;37751;52.408;12.536;2024-02-15T05:31:56;12.80;;;9.88;;
51664;SDS011;37751;52.408;12.536;2024-02-15T05:34:27;12.68;;;9.90;;
51664;SDS011;37751;52.408;12.536;2024-02-15T05:36:59;13.60;;;10.00;;
51664;SDS011;37751;52.408;12.536;2024-02-15T05:39:30;13.40;;;9.45;;
51664;SDS011;37751;52.408;12.536;2024-02-15T05:42:02;11.18;;;9.25;;
51664;SDS011;37751;52.408;12.536;2024-02-15T05:44:36;13.65;;;9.85;;
51664;SDS011;37751;52.408;12.536;2024-02-15T05:47:20;10.70;;;9.13;;
51664;SDS011;37751;52.408;12.536;2024-02-15T05:49:53;12.25;;;9.48;;
51664;SDS011;37751;52.408;12.536;2024-02-15T05:52:28;13.80;;;9.38;;
51664;SDS011;37751;52.408;12.536;2024-02-15T05:54:59;12.70;;;9.40;;
51664;SDS011;37751;52.408;12.536;2024-02-15T05:57:30;12.98;;;9.73;;
51664;SDS011;37751;52.408;12.536;2024-02-15T06:00:20;12.15;;;8.63;;
51664;SDS011;37751;52.408;12.536;2024-02-15T06:02:58;14.00;;;9.05;;
51664;SDS011;37751;52.408;12.536;2024-02-15T06:05:31;14.25;;;9.68;;
51664;SDS011;37751;52.408;12.536;2024-02-15T06:08:06;13.75;;;9.80;;
51664;SDS011;37751;52.408;12.536;2024-02-15T06:10:45;14.35;;;9.20;;
51664;SDS011;37751;52.408;12.536;2024-02-15T06:13:22;13.55;;;8.88;;
51664;SDS011;37751;52.408;12.536;2024-02-15T06:15:59;12.13;;;9.02;;
51664;SDS011;37751;52.408;12.536;2024-02-15T06:18:36;12.23;;;8.95;;
51664;SDS011;37751;52.408;12.536;2024-02-15T06:21:08;11.68;;;9.52;;
51664;SDS011;37751;52.408;12.536;2024-02-15T06:23:39;12.15;;;9.18;;
51664;SDS011;37751;52.408;12.536;2024-02-15T06:26:11;16.10;;;8.35;;
51664;SDS011;37751;52.408;12.536;2024-02-15T06:28:45;13.43;;;8.75;;
51664;SDS011;37751;52.408;12.536;2024-02-15T06:31:43;13.93;;;8.88;;
51664;SDS011;37751;52.408;12.536;2024-02-15T06:34:26;15.32;;;9.27;;
51664;SDS011;37751;52.408;12.536;2024-02-15T06:37:09;10.23;;;8.57;;
51664;SDS011;37751;52.408;12.536;2024-02-15T06:39:52;13.23;;;9.13;;
51664;SDS011;37751;52.408;12.536;2024-02-15T06:42:24;10.68;;;8.40;;
51664;SDS011;37751;52.408;12.536;2024-02-15T06:44:58;13.40;;;9.40;;
51664;SDS011;37751;52.408;12.536;2024-02-15T06:47:32;13.18;;;8.65;;
51664;SDS011;37751;52.408;12.536;2024-02-15T06:50:04;12.15;;;8.90;;
51664;SDS011;37751;52.408;12.536;2024-02-15T06:52:37;12.02;;;8.95;;
51664;SDS011;37751;52.408;12.536;2024-02-15T06:55:08;11.65;;;8.43;;
51664;SDS011;37751;52.408;12.536;2024-02-15T06:57:42;13.15;;;8.20;;
51664;SDS011;37751;52.408;12.536;2024-02-15T07:00:13;10.10;;;8.10;;
51664;SDS011;37751;52.408;12.536;2024-02-15T07:02:48;9.98;;;8.30;;
51664;SDS011;37751;52.408;12.536;2024-02-15T07:05:20;16.75;;;8.68;;
51664;SDS011;37751;52.408;12.536;2024-02-15T07:07:51;10.82;;;7.63;;
51664;SDS011;37751;52.408;12.536;2024-02-15T07:10:23;10.20;;;7.65;;
51664;SDS011;37751;52.408;12.536;2024-02-15T07:12:54;12.60;;;7.85;;
51664;SDS011;37751;52.408;12.536;2024-02-15T07:15:26;10.52;;;7.18;;
51664;SDS011;37751;52.408;12.536;2024-02-15T07:18:02;9.98;;;7.32;;
51664;SDS011;37751;52.408;12.536;2024-02-15T07:20:34;10.68;;;8.13;;
51664;SDS011;37751;52.408;12.536;2024-02-15T07:23:05;13.57;;;7.95;;
51664;SDS011;37751;52.408;12.536;2024-02-15T07:25:36;10.75;;;8.00;;
51664;SDS011;37751;52.408;12.536;2024-02-15T07:28:08;9.20;;;6.88;;
51664;SDS011;37751;52.408;12.536;2024-02-15T07:30:39;9.35;;;7.10;;
51664;SDS011;37751;52.408;12.536;2024-02-15T07:33:13;10.93;;;7.15;;
51664;SDS011;37751;52.408;12.536;2024-02-15T07:35:45;8.88;;;6.20;;
51664;SDS011;37751;52.408;12.536;2024-02-15T07:38:18;8.48;;;6.85;;
51664;SDS011;37751;52.408;12.536;2024-02-15T07:40:50;8.25;;;6.82;;
51664;SDS011;37751;52.408;12.536;2024-02-15T07:43:22;9.65;;;6.70;;
51664;SDS011;37751;52.408;12.536;2024-02-15T07:45:53;9.20;;;6.55;;
51664;SDS011;37751;52.408;12.536;2024-02-15T07:48:27;7.80;;;6.53;;
51664;SDS011;37751;52.408;12.536;2024-02-15T07:50:59;8.00;;;6.50;;
51664;SDS011;37751;52.408;12.536;2024-02-15T07:53:31;8.38;;;6.45;;
51664;SDS011;37751;52.408;12.536;2024-02-15T07:56:02;7.75;;;6.18;;
51664;SDS011;37751;52.408;12.536;2024-02-15T07:58:33;7.50;;;6.18;;
51664;SDS011;37751;52.408;12.536;2024-02-15T08:01:04;10.27;;;8.48;;
51664;SDS011;37751;52.408;12.536;2024-02-15T08:03:41;7.68;;;6.05;;
51664;SDS011;37751;52.408;12.536;2024-02-15T08:06:14;11.38;;;7.38;;
51664;SDS011;37751;52.408;12.536;2024-02-15T08:08:47;8.05;;;6.35;;
51664;SDS011;37751;52.408;12.536;2024-02-15T08:11:20;9.02;;;6.30;;
51664;SDS011;37751;52.408;12.536;2024-02-15T08:13:54;6.40;;;5.35;;
51664;SDS011;37751;52.408;12.536;2024-02-15T08:16:26;9.05;;;7.07;;
51664;SDS011;37751;52.408;12.536;2024-02-15T08:19:00;12.07;;;6.32;;
51664;SDS011;37751;52.408;12.536;2024-02-15T08:21:33;7.25;;;5.75;;
51664;SDS011;37751;52.408;12.536;2024-02-15T08:24:08;7.70;;;5.50;;
51664;SDS011;37751;52.408;12.536;2024-02-15T08:26:39;6.72;;;5.82;;
51664;SDS011;37751;52.408;12.536;2024-02-15T08:29:11;10.00;;;5.70;;
51664;SDS011;37751;52.408;12.536;2024-02-15T08:31:43;7.88;;;5.80;;
51664;SDS011;37751;52.408;12.536;2024-02-15T08:34:18;9.23;;;5.70;;
51664;SDS011;37751;52.408;12.536;2024-02-15T08:36:50;7.25;;;5.80;;
51664;SDS011;37751;52.408;12.536;2024-02-15T08:39:21;7.28;;;6.00;;
51664;SDS011;37751;52.408;12.536;2024-02-15T08:41:52;6.82;;;6.07;;
51664;SDS011;37751;52.408;12.536;2024-02-15T08:44:23;6.75;;;5.07;;
51664;SDS011;37751;52.408;12.536;2024-02-15T08:46:55;7.82;;;5.30;;
51664;SDS011;37751;52.408;12.536;2024-02-15T08:49:30;6.13;;;4.95;;
51664;SDS011;37751;52.408;12.536;2024-02-15T08:52:01;7.13;;;5.18;;
51664;SDS011;37751;52.408;12.536;2024-02-15T08:54:32;6.55;;;5.43;;
51664;SDS011;37751;52.408;12.536;2024-02-15T08:57:06;5.57;;;4.97;;
51664;SDS011;37751;52.408;12.536;2024-02-15T08:59:39;7.57;;;5.15;;
51664;SDS011;37751;52.408;12.536;2024-02-15T09:02:10;6.45;;;5.20;;
51664;SDS011;37751;52.408;12.536;2024-02-15T09:04:44;6.80;;;4.43;;
51664;SDS011;37751;52.408;12.536;2024-02-15T09:07:15;7.95;;;4.80;;
51664;SDS011;37751;52.408;12.536;2024-02-15T09:09:48;6.88;;;4.85;;
51664;SDS011;37751;52.408;12.536;2024-02-15T09:12:19;5.97;;;4.55;;
51664;SDS011;37751;52.408;12.536;2024-02-15T09:14:50;5.80;;;4.22;;
51664;SDS011;37751;52.408;12.536;2024-02-15T09:17:21;5.75;;;4.07;;
51664;SDS011;37751;52.408;12.536;2024-02-15T09:19:57;5.00;;;4.43;;
51664;SDS011;37751;52.408;12.536;2024-02-15T09:22:28;5.32;;;4.47;;
51664;SDS011;37751;52.408;12.536;2024-02-15T09:24:59;4.95;;;3.80;;
51664;SDS011;37751;52.408;12.536;2024-02-15T09:27:30;5.15;;;4.30;;
51664;SDS011;37751;52.408;12.536;2024-02-15T09:30:01;4.63;;;4.18;;
51664;SDS011;37751;52.408;12.536;2024-02-15T09:32:37;4.68;;;4.20;;
51664;SDS011;37751;52.408;12.536;2024-02-15T09:35:12;4.30;;;3.75;;
51664;SDS011;37751;52.408;12.536;2024-02-15T09:37:44;6.63;;;4.15;;
51664;SDS011;37751;52.408;12.536;2024-02-15T09:40:17;4.88;;;3.65;;
51664;SDS011;37751;52.408;12.536;2024-02-15T09:42:51;6.47;;;3.70;;
51664;SDS011;37751;52.408;12.536;2024-02-15T09:45:23;4.80;;;3.60;;
51664;SDS011;37751;52.408;12.536;2024-02-15T09:47:54;6.93;;;4.60;;
51664;SDS011;37751;52.408;12.536;2024-02-15T09:50:35;4.80;;;4.10;;
51664;SDS011;37751;52.408;12.536;2024-02-15T09:53:10;4.90;;;3.88;;
51664;SDS011;37751;52.408;12.536;2024-02-15T09:55:42;4.68;;;3.92;;
51664;SDS011;37751;52.408;12.536;2024-02-15T09:58:13;4.30;;;3.70;;
51664;SDS011;37751;52.408;12.536;2024-02-15T10:00:45;5.75;;;4.03;;
51664;SDS011;37751;52.408;12.536;2024-02-15T10:03:18;10.57;;;4.15;;
51664;SDS011;37751;52.408;12.536;2024-02-15T10:05:53;4.80;;;4.03;;
51664;SDS011;37751;52.408;12.536;2024-02-15T10:08:25;4.28;;;3.88;;
51664;SDS011;37751;52.408;12.536;2024-02-15T10:11:05;5.68;;;3.15;;
51664;SDS011;37751;52.408;12.536;2024-02-15T10:13:38;4.95;;;3.80;;
51664;SDS011;37751;52.408;12.536;2024-02-15T10:16:15;3.78;;;3.45;;
51664;SDS011;37751;52.408;12.536;2024-02-15T10:18:52;7.10;;;3.10;;
51664;SDS011;37751;52.408;12.536;2024-02-15T10:21:41;3.47;;;2.92;;
51664;SDS011;37751;52.408;12.536;2024-02-15T10:24:13;6.28;;;3.40;;
51664;SDS011;37751;52.408;12.536;2024-02-15T10:26:47;2.90;;;2.70;;
51664;SDS011;37751;52.408;12.536;2024-02-15T10:29:19;4.05;;;3.45;;
51664;SDS011;37751;52.408;12.536;2024-02-15T10:31:53;5.65;;;3.10;;
51664;SDS011;37751;52.408;12.536;2024-02-15T10:34:26;3.97;;;2.80;;
51664;SDS011;37751;52.408;12.536;2024-02-15T10:37:10;3.90;;;2.83;;
51664;SDS011;37751;52.408;12.536;2024-02-15T10:39:44;3.85;;;2.92;;
51664;SDS011;37751;52.408;12.536;2024-02-15T10:42:15;2.75;;;2.53;;
51664;SDS011;37751;52.408;12.536;2024-02-15T10:44:47;2.55;;;2.35;;
51664;SDS011;37751;52.408;12.536;2024-02-15T10:47:21;4.68;;;2.63;;
51664;SDS011;37751;52.408;12.536;2024-02-15T10:49:53;3.17;;;2.53;;
51664;SDS011;37751;52.408;12.536;2024-02-15T10:52:28;3.15;;;2.67;;
51664;SDS011;37751;52.408;12.536;2024-02-15T10:55:03;3.83;;;3.30;;
51664;SDS011;37751;52.408;12.536;2024-02-15T10:57:42;3.85;;;2.70;;
51664;SDS011;37751;52.408;12.536;2024-02-15T11:00:17;2.60;;;2.22;;
51664;SDS011;37751;52.408;12.536;2024-02-15T11:02:55;2.90;;;2.60;;
51664;SDS011;37751;52.408;12.536;2024-02-15T11:05:33;5.35;;;2.80;;
51664;SDS011;37751;52.408;12.536;2024-02-15T11:08:09;7.75;;;2.65;;
51664;SDS011;37751;52.408;12.536;2024-02-15T11:10:43;4.43;;;3.05;;
51664;SDS011;37751;52.408;12.536;2024-02-15T11:13:17;2.63;;;2.30;;
51664;SDS011;37751;52.408;12.536;2024-02-15T11:15:48;5.63;;;2.47;;
51664;SDS011;37751;52.408;12.536;2024-02-15T11:21:16;3.80;;;2.42;;
51664;SDS011;37751;52.408;12.536;2024-02-15T11:23:51;4.03;;;2.63;;
51664;SDS011;37751;52.408;12.536;2024-02-15T11:35:12;4.07;;;2.42;;
51664;SDS011;37751;52.408;12.536;2024-02-15T11:37:55;3.50;;;2.63;;
51664;SDS011;37751;52.408;12.536;2024-02-15T11:43:48;4.72;;;2.50;;
51664;SDS011;37751;52.408;12.536;2024-02-15T11:46:28;7.85;;;3.40;;
51664;SDS011;37751;52.408;12.536;2024-02-15T11:49:01;7.22;;;3.30;;
51664;SDS011;37751;52.408;12.536;2024-02-15T11:51:35;6.78;;;3.65;;
51664;SDS011;37751;52.408;12.536;2024-02-15T11:54:11;3.47;;;2.80;;
51664;SDS011;37751;52.408;12.536;2024-02-15T11:56:55;6.45;;;2.70;;
51664;SDS011;37751;52.408;12.536;2024-02-15T11:59:41;2.83;;;2.30;;
51664;SDS011;37751;52.408;12.536;2024-02-15T12:02:21;3.80;;;2.90;;
51664;SDS011;37751;52.408;12.536;2024-02-15T12:05:04;4.35;;;3.38;;
51664;SDS011;37751;52.408;12.536;2024-02-15T12:07:51;3.40;;;1.88;;
51664;SDS011;37751;52.408;12.536;2024-02-15T12:10:35;2.83;;;2.47;;
51664;SDS011;37751;52.408;12.536;2024-02-15T12:13:20;6.28;;;2.13;;
51664;SDS011;37751;52.408;12.536;2024-02-15T12:16:04;4.85;;;2.42;;
51664;SDS011;37751;52.408;12.536;2024-02-15T12:18:48;7.97;;;1.90;;
51664;SDS011;37751;52.408;12.536;2024-02-15T12:21:21;5.60;;;2.00;;
51664;SDS011;37751;52.408;12.536;2024-02-15T12:23:55;4.75;;;3.00;;
51664;SDS011;37751;52.408;12.536;2024-02-15T12:26:27;6.35;;;2.15;;
51664;SDS011;37751;52.408;12.536;2024-02-15T12:29:04;5.55;;;2.70;;
51664;SDS011;37751;52.408;12.536;2024-02-15T12:31:36;6.97;;;3.83;;
51664;SDS011;37751;52.408;12.536;2024-02-15T12:34:08;6.00;;;3.25;;
51664;SDS011;37751;52.408;12.536;2024-02-15T12:36:41;7.82;;;2.40;;
51664;SDS011;37751;52.408;12.536;2024-02-15T12:39:12;5.30;;;2.67;;
51664;SDS011;37751;52.408;12.536;2024-02-15T12:41:47;3.67;;;2.28;;
51664;SDS011;37751;52.408;12.536;2024-02-15T12:44:22;2.80;;;1.45;;
51664;SDS011;37751;52.408;12.536;2024-02-15T12:46:57;3.33;;;1.20;;
51664;SDS011;37751;52.408;12.536;2024-02-15T12:49:32;6.63;;;1.30;;
51664;SDS011;37751;52.408;12.536;2024-02-15T12:55:07;3.60;;;1.15;;
51664;SDS011;37751;52.408;12.536;2024-02-15T12:57:47;4.30;;;1.50;;
51664;SDS011;37751;52.408;12.536;2024-02-15T13:00:27;10.48;;;1.45;;
51664;SDS011;37751;52.408;12.536;2024-02-15T13:03:01;3.80;;;1.20;;
51664;SDS011;37751;52.408;12.536;2024-02-15T13:05:36;5.88;;;1.30;;
51664;SDS011;37751;52.408;12.536;2024-02-15T13:08:11;5.00;;;1.60;;
51664;SDS011;37751;52.408;12.536;2024-02-15T13:10:45;5.13;;;1.90;;
51664;SDS011;37751;52.408;12.536;2024-02-15T13:13:17;5.22;;;1.52;;
51664;SDS011;37751;52.408;12.536;2024-02-15T13:15:51;4.55;;;1.63;;
51664;SDS011;37751;52.408;12.536;2024-02-15T13:18:23;4.13;;;1.30;;
51664;SDS011;37751;52.408;12.536;2024-02-15T13:20:56;5.00;;;2.55;;
51664;SDS011;37751;52.408;12.536;2024-02-15T13:23:33;2.97;;;1.58;;
51664;SDS011;37751;52.408;12.536;2024-02-15T13:26:04;2.45;;;1.40;;
51664;SDS011;37751;52.408;12.536;2024-02-15T13:28:35;5.00;;;1.48;;
51664;SDS011;37751;52.408;12.536;2024-02-15T13:31:09;2.33;;;1.20;;
51664;SDS011;37751;52.408;12.536;2024-02-15T13:33:40;2.67;;;1.42;;
51664;SDS011;37751;52.408;12.536;2024-02-15T13:36:11;4.80;;;1.48;;
51664;SDS011;37751;52.408;12.536;2024-02-15T13:38:43;3.65;;;1.52;;
51664;SDS011;37751;52.408;12.536;2024-02-15T13:41:14;4.13;;;1.50;;
51664;SDS011;37751;52.408;12.536;2024-02-15T13:43:45;4.32;;;1.45;;
51664;SDS011;37751;52.408;12.536;2024-02-15T13:46:19;4.35;;;1.48;;
51664;SDS011;37751;52.408;12.536;2024-02-15T13:48:51;7.72;;;1.90;;
51664;SDS011;37751;52.408;12.536;2024-02-15T13:51:23;7.45;;;1.52;;
51664;SDS011;37751;52.408;12.536;2024-02-15T13:53:54;3.38;;;1.48;;
51664;SDS011;37751;52.408;12.536;2024-02-15T13:56:25;3.20;;;1.50;;
51664;SDS011;37751;52.408;12.536;2024-02-15T13:58:58;4.70;;;1.55;;
51664;SDS011;37751;52.408;12.536;2024-02-15T14:01:35;7.65;;;1.52;;
51664;SDS011;37751;52.408;12.536;2024-02-15T14:04:15;4.10;;;1.45;;
51664;SDS011;37751;52.408;12.536;2024-02-15T14:06:47;4.57;;;1.55;;
51664;SDS011;37751;52.408;12.536;2024-02-15T14:09:19;7.05;;;1.40;;
51664;SDS011;37751;52.408;12.536;2024-02-15T14:11:53;6.00;;;2.55;;
51664;SDS011;37751;52.408;12.536;2024-02-15T14:14:26;5.97;;;1.38;;
51664;SDS011;37751;52.408;12.536;2024-02-15T14:17:00;8.43;;;1.83;;
51664;SDS011;37751;52.408;12.536;2024-02-15T14:19:32;4.53;;;1.73;;
51664;SDS011;37751;52.408;12.536;2024-02-15T14:22:04;4.10;;;1.83;;
51664;SDS011;37751;52.408;12.536;2024-02-15T14:24:36;6.80;;;2.00;;
51664;SDS011;37751;52.408;12.536;2024-02-15T14:27:09;5.95;;;2.05;;
51664;SDS011;37751;52.408;12.536;2024-02-15T14:29:42;3.75;;;1.55;;
51664;SDS011;37751;52.408;12.536;2024-02-15T14:32:37;5.47;;;1.70;;
51664;SDS011;37751;52.408;12.536;2024-02-15T14:35:20;6.65;;;2.10;;
51664;SDS011;37751;52.408;12.536;2024-02-15T14:37:51;5.22;;;1.50;;
51664;SDS011;37751;52.408;12.536;2024-02-15T14:40:23;3.78;;;1.70;;
51664;SDS011;37751;52.408;12.536;2024-02-15T14:43:10;5.40;;;2.00;;
51664;SDS011;37751;52.408;12.536;2024-02-15T14:45:45;4.70;;;2.38;;
51664;SDS011;37751;52.408;12.536;2024-02-15T14:48:21;10.48;;;1.65;;
51664;SDS011;37751;52.408;12.536;2024-02-15T14:50:53;3.33;;;1.58;;
51664;SDS011;37751;52.408;12.536;2024-02-15T14:53:25;4.32;;;1.90;;
51664;SDS011;37751;52.408;12.536;2024-02-15T14:56:16;3.15;;;1.73;;
51664;SDS011;37751;52.408;12.536;2024-02-15T14:59:04;2.60;;;1.70;;
51664;SDS011;37751;52.408;12.536;2024-02-15T15:01:36;8.23;;;2.47;;
51664;SDS011;37751;52.408;12.536;2024-02-15T15:04:11;4.47;;;2.10;;
51664;SDS011;37751;52.408;12.536;2024-02-15T15:06:44;6.57;;;1.80;;
51664;SDS011;37751;52.408;12.536;2024-02-15T15:09:27;10.55;;;2.05;;
51664;SDS011;37751;52.408;12.536;2024-02-15T15:12:14;7.07;;;1.75;;
51664;SDS011;37751;52.408;12.536;2024-02-15T15:14:57;7.00;;;1.73;;
51664;SDS011;37751;52.408;12.536;2024-02-15T15:17:32;4.00;;;1.40;;
51664;SDS011;37751;52.408;12.536;2024-02-15T15:20:12;3.17;;;1.58;;
51664;SDS011;37751;52.408;12.536;2024-02-15T15:22:52;3.95;;;1.70;;
51664;SDS011;37751;52.408;12.536;2024-02-15T15:25:26;4.78;;;2.03;;